createdAt,value
2019-03-30T00:01:52.931Z,100438.59
2019-03-30T00:04:21.559Z,100436.45
2019-03-30T00:06:50.149Z,100435.35
2019-03-30T00:09:18.782Z,100429.16
2019-03-30T00:11:47.374Z,100427.91
2019-03-30T00:14:15.924Z,100430.77
2019-03-30T00:16:44.579Z,100433.11
2019-03-30T00:19:13.597Z,100436.59
2019-03-30T00:21:42.214Z,100436.77
2019-03-30T00:24:10.881Z,100444.35
2019-03-30T00:26:39.550Z,100440.03
2019-03-30T00:29:08.289Z,100436.23
2019-03-30T00:31:36.890Z,100439.38
2019-03-30T00:34:05.833Z,100440.42
2019-03-30T00:36:34.444Z,100436.05
2019-03-30T00:39:05.068Z,100434.72
2019-03-30T00:41:34.054Z,100436.08
2019-03-30T00:44:02.682Z,100437.06
2019-03-30T00:46:31.382Z,100432.88
2019-03-30T00:49:05.207Z,100427.08
2019-03-30T00:51:33.828Z,100432.03
2019-03-30T00:54:02.407Z,100417.38
2019-03-30T00:56:31.091Z,100422.40
2019-03-30T00:59:09.714Z,100419.98
2019-03-30T01:01:38.344Z,100417.97
2019-03-30T01:04:06.911Z,100418.02
2019-03-30T01:06:35.614Z,100416.70
2019-03-30T01:09:06.991Z,100412.81
2019-03-30T01:11:35.760Z,100411.19
2019-03-30T01:14:04.338Z,100414.88
2019-03-30T01:16:32.902Z,100413.63
2019-03-30T01:19:01.476Z,100420.39
2019-03-30T01:21:30.181Z,100416.86
2019-03-30T01:23:58.827Z,100415.79
2019-03-30T01:26:27.392Z,100412.73
2019-03-30T01:28:56.003Z,100413.11
2019-03-30T01:31:24.663Z,100413.55
2019-03-30T01:33:53.236Z,100409.41
2019-03-30T01:36:21.860Z,100408.89
2019-03-30T01:38:50.427Z,100412.72
2019-03-30T01:41:19.065Z,100415.92
2019-03-30T01:43:47.630Z,100413.14
2019-03-30T01:46:16.272Z,100411.88
2019-03-30T01:48:44.851Z,100403.07
2019-03-30T01:51:13.505Z,100404.86
2019-03-30T01:53:42.055Z,100409.63
2019-03-30T01:56:10.688Z,100407.75
2019-03-30T01:58:39.281Z,100400.37
2019-03-30T02:01:08.103Z,100400.82
2019-03-30T02:03:36.679Z,100406.23
2019-03-30T02:06:05.295Z,100402.83
2019-03-30T02:08:33.942Z,100401.67
2019-03-30T02:11:02.793Z,100398.91
2019-03-30T02:13:31.401Z,100398.81
2019-03-30T02:16:00.176Z,100400.26
2019-03-30T02:18:28.790Z,100394.85
2019-03-30T02:21:12.726Z,100403.29
2019-03-30T02:23:41.311Z,100400.95
2019-03-30T02:26:11.119Z,100401.23
2019-03-30T02:28:39.731Z,100404.97
2019-03-30T02:31:13.592Z,100406.54
2019-03-30T02:33:42.185Z,100400.55
2019-03-30T02:36:10.777Z,100395.21
2019-03-30T02:38:39.410Z,100398.41
2019-03-30T02:41:09.484Z,100395.14
2019-03-30T02:43:38.050Z,100394.23
2019-03-30T02:46:06.749Z,100390.53
2019-03-30T02:48:35.438Z,100385.10
2019-03-30T02:51:04.266Z,100393.28
2019-03-30T02:53:32.813Z,100384.27
2019-03-30T02:56:01.435Z,100382.15
2019-03-30T02:58:30.043Z,100388.20
2019-03-30T03:00:59.235Z,100391.59
2019-03-30T03:03:27.846Z,100384.53
2019-03-30T03:05:56.443Z,100384.79
2019-03-30T03:08:25.036Z,100381.61
2019-03-30T03:11:03.836Z,100382.36
2019-03-30T03:13:32.514Z,100381.38
2019-03-30T03:16:01.100Z,100376.22
2019-03-30T03:18:29.659Z,100379.86
2019-03-30T03:21:08.998Z,100380.09
2019-03-30T03:23:37.832Z,100375.77
2019-03-30T03:26:06.427Z,100381.47
2019-03-30T03:28:35.030Z,100377.16
2019-03-30T03:31:03.616Z,100380.36
2019-03-30T03:33:32.233Z,100379.25
2019-03-30T03:36:00.882Z,100383.08
2019-03-30T03:38:29.509Z,100381.26
2019-03-30T03:40:58.153Z,100386.76
2019-03-30T03:43:26.834Z,100378.86
2019-03-30T03:45:55.448Z,100381.81
2019-03-30T03:48:24.095Z,100383.05
2019-03-30T03:50:59.679Z,100384.96
2019-03-30T03:53:29.627Z,100386.52
2019-03-30T03:56:00.895Z,100387.42
2019-03-30T03:58:33.478Z,100385.64
2019-03-30T04:01:03.708Z,100389.77
2019-03-30T04:03:52.952Z,100391.61
2019-03-30T04:06:24.336Z,100388.36
2019-03-30T04:08:56.343Z,100388.70
2019-03-30T04:11:26.773Z,100387.38
2019-03-30T04:13:59.481Z,100391.89
2019-03-30T04:16:28.135Z,100386.81
2019-03-30T04:18:56.687Z,100384.70
2019-03-30T04:21:42.372Z,100379.92
2019-03-30T04:23:55.859Z,100382.16
2019-03-30T04:26:24.541Z,100381.77
2019-03-30T04:28:53.179Z,100376.58
2019-03-30T04:31:21.781Z,100379.23
2019-03-30T04:33:50.388Z,100378.80
2019-03-30T04:36:19.030Z,100379.67
2019-03-30T04:38:47.660Z,100379.28
2019-03-30T04:41:16.310Z,100373.27
2019-03-30T04:43:44.938Z,100374.30
2019-03-30T04:46:13.532Z,100372.92
2019-03-30T04:48:42.113Z,100370.70
2019-03-30T04:51:10.748Z,100372.87
2019-03-30T04:53:39.383Z,100367.34
2019-03-30T04:56:08.002Z,100368.25
2019-03-30T04:58:36.620Z,100365.66
2019-03-30T05:01:05.306Z,100362.86
2019-03-30T05:03:33.927Z,100370.33
2019-03-30T05:06:02.512Z,100365.11
2019-03-30T05:08:31.068Z,100373.30
2019-03-30T05:11:00.142Z,100377.66
2019-03-30T05:13:28.722Z,100377.14
2019-03-30T05:15:57.316Z,100378.96
2019-03-30T05:18:25.946Z,100378.22
2019-03-30T05:20:54.815Z,100379.82
2019-03-30T05:23:23.398Z,100376.52
2019-03-30T05:25:52.198Z,100375.70
2019-03-30T05:28:20.786Z,100377.99
2019-03-30T05:30:49.570Z,100375.34
2019-03-30T05:33:19.714Z,100372.59
2019-03-30T05:35:48.350Z,100366.27
2019-03-30T05:38:16.921Z,100369.13
2019-03-30T05:40:45.555Z,100379.92
2019-03-30T05:43:14.160Z,100382.70
2019-03-30T05:45:42.771Z,100381.53
2019-03-30T05:48:11.376Z,100377.33
2019-03-30T05:50:39.975Z,100376.06
2019-03-30T05:53:08.578Z,100376.64
2019-03-30T05:55:37.181Z,100379.13
2019-03-30T05:58:05.780Z,100376.84
2019-03-30T06:00:44.597Z,100375.01
2019-03-30T06:03:13.164Z,100379.83
2019-03-30T06:05:42.049Z,100378.02
2019-03-30T06:08:10.688Z,100380.38
2019-03-30T06:10:39.278Z,100391.89
2019-03-30T06:13:07.884Z,100392.97
2019-03-30T06:15:36.506Z,100383.80
2019-03-30T06:18:05.201Z,100379.54
2019-03-30T06:20:33.923Z,100370.11
2019-03-30T06:23:02.707Z,100369.80
2019-03-30T06:25:31.287Z,100359.96
2019-03-30T06:27:59.891Z,100357.78
2019-03-30T06:30:33.521Z,100354.11
2019-03-30T06:33:02.173Z,100354.67
2019-03-30T06:35:30.743Z,100354.44
2019-03-30T06:37:59.333Z,100359.33
2019-03-30T06:40:27.937Z,100353.33
2019-03-30T06:42:56.486Z,100353.47
2019-03-30T06:45:25.092Z,100345.67
2019-03-30T06:47:53.677Z,100350.56
2019-03-30T06:50:22.293Z,100352.21
2019-03-30T06:52:57.660Z,100346.86
2019-03-30T06:55:21.407Z,100340.14
2019-03-30T06:57:50.025Z,100342.33
2019-03-30T07:00:32.959Z,100315.36
2019-03-30T07:03:04.851Z,100335.19
2019-03-30T07:05:38.568Z,100340.57
2019-03-30T07:08:11.934Z,100335.34
2019-03-30T07:10:45.289Z,100334.66
2019-03-30T07:13:14.388Z,100330.76
2019-03-30T07:15:47.838Z,100319.41
2019-03-30T07:18:17.194Z,100321.11
2019-03-30T07:20:45.835Z,100322.70
2019-03-30T07:23:14.493Z,100310.35
2019-03-30T07:25:43.160Z,100326.98
2019-03-30T07:28:11.748Z,100315.84
2019-03-30T07:30:40.343Z,100311.86
2019-03-30T07:33:09.002Z,100321.75
2019-03-30T07:35:37.593Z,100317.14
2019-03-30T07:38:06.269Z,100316.24
2019-03-30T07:40:34.845Z,100312.86
2019-03-30T07:43:03.439Z,100309.80
2019-03-30T07:45:32.017Z,100303.23
2019-03-30T07:48:00.617Z,100302.06
2019-03-30T07:50:29.175Z,100297.84
2019-03-30T07:52:57.808Z,100297.28
2019-03-30T07:55:26.429Z,100285.63
2019-03-30T07:57:55.046Z,100299.17
2019-03-30T08:00:29.082Z,100288.53
2019-03-30T08:02:54.263Z,100286.16
2019-03-30T08:05:22.878Z,100280.75
2019-03-30T08:07:51.430Z,100280.66
2019-03-30T08:10:20.013Z,100278.15
2019-03-30T08:12:48.627Z,100272.55
2019-03-30T08:15:17.324Z,100282.93
2019-03-30T08:17:46.268Z,100284.47
2019-03-30T08:20:15.575Z,100282.95
2019-03-30T08:22:44.267Z,100278.02
2019-03-30T08:25:13.516Z,100278.23
2019-03-30T08:27:42.076Z,100277.59
2019-03-30T08:30:10.985Z,100278.10
2019-03-30T08:32:39.571Z,100266.25
2019-03-30T08:35:08.866Z,100272.33
2019-03-30T08:37:37.457Z,100259.77
2019-03-30T08:40:06.649Z,100257.64
2019-03-30T08:42:35.292Z,100256.80
2019-03-30T08:45:05.390Z,100257.24
2019-03-30T08:47:33.975Z,100245.69
2019-03-30T08:50:03.257Z,100247.05
2019-03-30T08:52:31.902Z,100241.27
2019-03-30T08:55:00.476Z,100242.05
2019-03-30T08:57:29.046Z,100231.59
2019-03-30T08:59:57.667Z,100226.55
2019-03-30T09:02:26.188Z,100225.80
2019-03-30T09:04:54.812Z,100218.96
2019-03-30T09:07:23.375Z,100208.88
2019-03-30T09:09:52.007Z,100207.52
2019-03-30T09:12:20.678Z,100201.94
2019-03-30T09:14:50.506Z,100197.03
2019-03-30T09:17:19.175Z,100209.79
2019-03-30T09:19:47.860Z,100203.02
2019-03-30T09:22:16.461Z,100188.12
2019-03-30T09:24:45.084Z,100190.02
2019-03-30T09:27:16.274Z,100189.02
2019-03-30T09:29:55.097Z,100198.84
2019-03-30T09:32:23.761Z,100185.89
2019-03-30T09:34:52.379Z,100183.06
2019-03-30T09:37:20.958Z,100184.63
2019-03-30T09:39:49.763Z,100176.81
2019-03-30T09:42:18.484Z,100176.69
2019-03-30T09:44:48.975Z,100172.08
2019-03-30T09:47:17.910Z,100165.30
2019-03-30T09:49:47.538Z,100162.17
2019-03-30T09:52:17.079Z,100159.84
2019-03-30T09:54:49.382Z,100152.56
2019-03-30T09:57:22.024Z,100156.02
2019-03-30T10:00:02.402Z,100159.41
2019-03-30T10:02:31.620Z,100156.02
2019-03-30T10:05:00.953Z,100156.55
2019-03-30T10:07:29.690Z,100155.87
2019-03-30T10:09:58.388Z,100157.07
2019-03-30T10:12:27.025Z,100158.83
2019-03-30T10:14:55.700Z,100160.39
2019-03-30T10:17:24.328Z,100153.52
2019-03-30T10:20:03.717Z,100148.81
2019-03-30T10:22:23.937Z,100148.73
2019-03-30T10:24:52.625Z,100156.72
2019-03-30T10:27:21.528Z,100146.25
2019-03-30T10:29:50.328Z,100136.95
2019-03-30T10:32:18.972Z,100135.50
2019-03-30T10:34:47.880Z,100124.14
2019-03-30T10:37:16.553Z,100116.34
2019-03-30T10:39:45.473Z,100119.38
2019-03-30T10:42:14.165Z,100110.66
2019-03-30T10:44:43.098Z,100107.27
2019-03-30T10:47:12.123Z,100106.03
2019-03-30T10:49:43.409Z,100105.11
2019-03-30T10:52:12.111Z,100092.68
2019-03-30T10:54:52.123Z,100086.69
2019-03-30T10:57:12.097Z,100081.17
2019-03-30T10:59:41.002Z,100082.58
2019-03-30T11:02:09.659Z,100073.84
2019-03-30T11:04:39.605Z,100069.12
2019-03-30T11:07:08.289Z,100070.84
2019-03-30T11:10:07.624Z,100069.66
2019-03-30T11:12:36.419Z,100061.61
2019-03-30T11:15:06.015Z,100059.08
2019-03-30T11:17:34.716Z,100050.70
2019-03-30T11:20:08.604Z,100046.20
2019-03-30T11:22:37.213Z,100048.41
2019-03-30T11:25:08.529Z,100045.98
2019-03-30T11:27:36.783Z,100043.04
2019-03-30T11:30:06.194Z,100042.62
2019-03-30T11:32:34.916Z,100041.77
2019-03-30T11:35:04.086Z,100035.67
2019-03-30T11:37:32.733Z,100037.81
2019-03-30T11:40:01.531Z,100027.03
2019-03-30T11:42:30.204Z,100021.59
2019-03-30T11:44:58.918Z,100020.89
2019-03-30T11:47:27.576Z,100018.52
2019-03-30T11:49:56.190Z,100009.38
2019-03-30T11:52:24.804Z,100007.28
2019-03-30T11:54:53.462Z,100002.58
2019-03-30T11:57:22.071Z,99996.17
2019-03-30T11:59:50.626Z,99989.66
2019-03-30T12:02:27.767Z,99987.24
2019-03-30T12:04:49.818Z,99981.23
2019-03-30T12:07:18.496Z,99972.09
2019-03-30T12:09:47.041Z,99972.28
2019-03-30T12:12:15.602Z,99967.91
2019-03-30T12:14:44.261Z,99963.23
2019-03-30T12:17:12.924Z,99962.98
2019-03-30T12:19:41.512Z,99960.84
2019-03-30T12:22:10.175Z,99953.78
2019-03-30T12:24:38.748Z,99948.22
2019-03-30T12:27:07.340Z,99942.74
2019-03-30T12:29:36.013Z,99941.52
2019-03-30T12:32:04.610Z,99939.58
2019-03-30T12:34:33.250Z,99935.44
2019-03-30T12:37:01.888Z,99928.62
2019-03-30T12:39:30.538Z,99930.56
2019-03-30T12:41:59.232Z,99924.54
2019-03-30T12:44:28.000Z,99922.41
2019-03-30T12:46:56.665Z,99917.61
2019-03-30T12:49:25.332Z,99904.95
2019-03-30T12:51:53.956Z,99902.78
2019-03-30T12:54:22.686Z,99896.65
2019-03-30T12:56:51.308Z,99897.44
2019-03-30T12:59:19.969Z,99886.41
2019-03-30T13:01:48.647Z,99885.88
2019-03-30T13:04:17.251Z,99881.73
2019-03-30T13:06:46.116Z,99879.05
2019-03-30T13:09:14.680Z,99876.71
2019-03-30T13:11:43.630Z,99873.23
2019-03-30T13:14:12.252Z,99867.77
2019-03-30T13:16:40.875Z,99875.85
2019-03-30T13:19:27.932Z,99871.62
2019-03-30T13:21:56.581Z,99867.11
2019-03-30T13:24:25.202Z,99858.91
2019-03-30T13:26:53.989Z,99853.76
2019-03-30T13:29:27.657Z,99855.20
2019-03-30T13:31:56.391Z,99841.06
2019-03-30T13:34:24.992Z,99841.87
2019-03-30T13:36:53.611Z,99841.61
2019-03-30T13:39:22.268Z,99841.17
2019-03-30T13:41:51.126Z,99841.28
2019-03-30T13:44:19.839Z,99834.95
2019-03-30T13:46:48.772Z,99828.23
2019-03-30T13:49:17.447Z,99824.04
2019-03-30T13:51:46.128Z,99822.28
2019-03-30T13:54:14.780Z,99817.67
2019-03-30T13:56:43.457Z,99813.14
2019-03-30T13:59:12.052Z,99807.64
2019-03-30T14:01:40.691Z,99793.47
2019-03-30T14:04:09.368Z,99808.64
2019-03-30T14:06:38.093Z,99811.65
2019-03-30T14:09:07.636Z,99801.72
2019-03-30T14:11:36.294Z,99803.52
2019-03-30T14:14:04.992Z,99791.86
2019-03-30T14:16:33.655Z,99791.24
2019-03-30T14:19:02.342Z,99792.58
2019-03-30T14:21:30.961Z,99786.20
2019-03-30T14:23:59.660Z,99773.84
2019-03-30T14:26:31.706Z,99778.41
2019-03-30T14:28:58.893Z,99770.56
2019-03-30T14:31:27.579Z,99770.70
2019-03-30T14:33:56.229Z,99769.30
2019-03-30T14:36:24.902Z,99765.41
2019-03-30T14:38:53.533Z,99755.50
2019-03-30T14:41:22.168Z,99752.72
2019-03-30T14:43:50.929Z,99751.48
2019-03-30T14:46:19.655Z,99746.64
2019-03-30T14:48:48.277Z,99744.97
2019-03-30T14:51:17.176Z,99743.58
2019-03-30T14:53:45.804Z,99738.73
2019-03-30T14:56:14.406Z,99741.75
2019-03-30T14:58:43.085Z,99741.16
2019-03-30T15:01:11.720Z,99741.52
2019-03-30T15:03:40.641Z,99735.25
2019-03-30T15:06:09.326Z,99734.55
2019-03-30T15:08:37.946Z,99726.89
2019-03-30T15:11:08.891Z,99733.48
2019-03-30T15:13:37.494Z,99728.25
2019-03-30T15:16:06.116Z,99727.04
2019-03-30T15:18:34.741Z,99726.90
2019-03-30T15:21:03.384Z,99722.62
2019-03-30T15:23:32.028Z,99722.56
2019-03-30T15:26:00.682Z,99713.94
2019-03-30T15:28:29.349Z,99712.19
2019-03-30T15:30:58.107Z,99706.80
2019-03-30T15:33:26.749Z,99701.91
2019-03-30T15:35:55.401Z,99711.10
2019-03-30T15:38:23.975Z,99703.96
2019-03-30T15:40:55.553Z,99702.55
2019-03-30T15:43:37.205Z,99693.66
2019-03-30T15:45:53.684Z,99697.11
2019-03-30T15:48:22.259Z,99692.76
2019-03-30T15:50:50.959Z,99693.53
2019-03-30T15:53:19.548Z,99698.58
2019-03-30T15:55:48.149Z,99691.27
2019-03-30T15:58:16.754Z,99697.39
2019-03-30T16:00:45.361Z,99692.77
2019-03-30T16:03:14.207Z,99689.92
2019-03-30T16:05:42.799Z,99691.28
2019-03-30T16:08:11.449Z,99692.42
2019-03-30T16:10:40.044Z,99690.33
2019-03-30T16:13:08.631Z,99690.97
2019-03-30T16:15:37.252Z,99688.67
2019-03-30T16:18:05.832Z,99695.26
2019-03-30T16:20:34.594Z,99691.16
2019-03-30T16:23:03.318Z,99692.75
2019-03-30T16:25:31.911Z,99690.43
2019-03-30T16:28:01.271Z,99696.58
2019-03-30T16:30:30.455Z,99694.52
2019-03-30T16:32:59.068Z,99693.55
2019-03-30T16:35:27.675Z,99693.29
2019-03-30T16:37:56.308Z,99694.64
2019-03-30T16:40:25.017Z,99698.19
2019-03-30T16:42:53.620Z,99697.64
2019-03-30T16:45:22.197Z,99699.00
2019-03-30T16:47:50.910Z,99702.89
2019-03-30T16:50:19.779Z,99699.73
2019-03-30T16:52:48.421Z,99701.34
2019-03-30T16:55:16.977Z,99698.69
2019-03-30T16:57:45.582Z,99698.85
2019-03-30T17:00:14.270Z,99699.17
2019-03-30T17:02:42.866Z,99702.48
2019-03-30T17:05:11.773Z,99700.66
2019-03-30T17:07:40.396Z,99703.55
2019-03-30T17:10:10.519Z,99703.21
2019-03-30T17:12:39.120Z,99705.23
2019-03-30T17:15:08.157Z,99704.98
2019-03-30T17:17:36.816Z,99707.48
2019-03-30T17:20:06.584Z,99715.03
2019-03-30T17:22:35.200Z,99712.57
2019-03-30T17:25:04.489Z,99714.01
2019-03-30T17:27:33.132Z,99710.76
2019-03-30T17:30:01.912Z,99714.20
2019-03-30T17:32:30.567Z,99711.65
2019-03-30T17:34:59.384Z,99719.20
2019-03-30T17:40:07.515Z,99722.53
2019-03-30T17:42:38.689Z,99729.61
2019-03-30T17:45:07.237Z,99727.33
2019-03-30T17:47:35.850Z,99730.05
2019-03-30T17:50:05.410Z,99732.94
2019-03-30T17:52:33.994Z,99732.95
2019-03-30T17:55:02.743Z,99740.67
2019-03-30T17:57:31.353Z,99740.86
2019-03-30T17:59:59.997Z,99736.48
2019-03-30T18:02:28.722Z,99739.62
2019-03-30T18:04:57.295Z,99746.83
2019-03-30T18:07:25.866Z,99747.73
2019-03-30T18:09:54.467Z,99745.91
2019-03-30T18:12:23.100Z,99751.37
2019-03-30T18:14:51.689Z,99752.76
2019-03-30T18:17:20.297Z,99755.21
2019-03-30T18:19:48.915Z,99755.39
2019-03-30T18:22:17.564Z,99753.99
2019-03-30T18:24:46.132Z,99757.73
2019-03-30T18:27:14.779Z,99755.30
2019-03-30T18:29:43.346Z,99760.81
2019-03-30T18:32:12.468Z,99742.03
2019-03-30T18:34:41.338Z,99769.80
2019-03-30T18:37:10.984Z,99772.16
2019-03-30T18:39:39.962Z,99778.95
2019-03-30T18:42:08.676Z,99776.44
2019-03-30T18:44:37.480Z,99779.04
2019-03-30T18:47:06.158Z,99782.81
2019-03-30T18:49:34.783Z,99782.57
2019-03-30T18:52:04.114Z,99791.58
2019-03-30T18:54:34.411Z,99792.54
2019-03-30T18:57:03.236Z,99797.16
2019-03-30T18:59:31.827Z,99802.03
2019-03-30T19:02:00.931Z,99799.77
2019-03-30T19:04:29.545Z,99804.95
2019-03-30T19:06:58.209Z,99802.02
2019-03-30T19:09:26.808Z,99803.78
2019-03-30T19:11:55.426Z,99805.08
2019-03-30T19:14:24.287Z,99808.84
2019-03-30T19:16:54.376Z,99810.09
2019-03-30T19:19:25.549Z,99805.58
2019-03-30T19:21:56.341Z,99807.95
2019-03-30T19:24:24.959Z,99813.15
2019-03-30T19:26:53.912Z,99811.23
2019-03-30T19:29:24.165Z,99814.91
2019-03-30T19:31:52.793Z,99809.59
2019-03-30T19:34:24.480Z,99818.18
2019-03-30T19:36:53.766Z,99814.93
2019-03-30T19:39:22.576Z,99810.18
2019-03-30T19:41:51.171Z,99814.19
2019-03-30T19:44:19.992Z,99813.92
2019-03-30T19:46:49.203Z,99816.75
2019-03-30T19:49:18.331Z,99813.66
2019-03-30T19:51:46.941Z,99817.47
2019-03-30T19:54:16.140Z,99822.09
2019-03-30T19:56:44.820Z,99820.30
2019-03-30T19:59:14.073Z,99818.20
2019-03-30T20:01:44.907Z,99815.74
2019-03-30T20:04:13.526Z,99819.71
2019-03-30T20:06:42.265Z,99823.18
2019-03-30T20:09:10.985Z,99822.88
2019-03-30T20:11:39.632Z,99824.02
2019-03-30T20:14:08.251Z,99823.23
2019-03-30T20:16:36.927Z,99822.57
2019-03-30T20:19:12.749Z,99829.97
2019-03-30T20:21:36.215Z,99826.99
2019-03-30T20:24:04.854Z,99824.52
2019-03-30T20:26:33.467Z,99833.08
2019-03-30T20:29:02.230Z,99831.94
2019-03-30T20:31:30.826Z,99828.81
2019-03-30T20:33:59.471Z,99828.45
2019-03-30T20:36:28.099Z,99824.03
2019-03-30T20:38:56.741Z,99825.49
2019-03-30T20:41:25.308Z,99824.52
2019-03-30T20:43:53.969Z,99828.13
2019-03-30T20:46:22.788Z,99834.03
2019-03-30T20:48:51.470Z,99830.08
2019-03-30T20:51:20.070Z,99834.20
2019-03-30T20:53:48.725Z,99834.36
2019-03-30T20:56:17.341Z,99830.42
2019-03-30T20:58:46.001Z,99832.06
2019-03-30T21:01:14.614Z,99826.14
2019-03-30T21:03:43.370Z,99831.58
2019-03-30T21:06:12.003Z,99831.75
2019-03-30T21:08:40.670Z,99829.27
2019-03-30T21:11:09.628Z,99825.46
2019-03-30T21:13:38.245Z,99824.16
2019-03-30T21:16:07.041Z,99826.43
2019-03-30T21:18:35.668Z,99824.64
2019-03-30T21:21:04.346Z,99825.56
2019-03-30T21:23:32.969Z,99824.89
2019-03-30T21:26:01.636Z,99825.21
2019-03-30T21:28:30.266Z,99817.82
2019-03-30T21:30:59.060Z,99826.52
2019-03-30T21:33:27.695Z,99824.69
2019-03-30T21:35:56.293Z,99824.37
2019-03-30T21:38:24.974Z,99824.66
2019-03-30T21:40:53.578Z,99823.96
2019-03-30T21:43:28.793Z,99824.45
2019-03-30T21:45:57.417Z,99823.45
2019-03-30T21:48:26.029Z,99817.31
2019-03-30T21:50:54.726Z,99819.58
2019-03-30T21:53:23.346Z,99818.06
2019-03-30T21:55:51.926Z,99824.42
2019-03-30T21:58:20.520Z,99825.17
2019-03-30T22:00:54.386Z,99826.09
2019-03-30T22:03:22.962Z,99826.55
2019-03-30T22:05:51.577Z,99825.83
2019-03-30T22:08:20.240Z,99821.69
2019-03-30T22:10:49.096Z,99819.69
2019-03-30T22:13:21.270Z,99823.72
2019-03-30T22:15:49.121Z,99830.56
2019-03-30T22:18:17.745Z,99829.39
2019-03-30T22:20:46.386Z,99834.09
2019-03-30T22:23:14.971Z,99831.10
2019-03-30T22:25:43.610Z,99827.61
2019-03-30T22:28:12.220Z,99830.84
2019-03-30T22:30:41.155Z,99828.83
2019-03-30T22:33:09.755Z,99825.13
2019-03-30T22:35:38.708Z,99824.13
2019-03-30T22:38:07.282Z,99826.83
2019-03-30T22:40:41.682Z,99826.63
2019-03-30T22:43:10.445Z,99827.40
2019-03-30T22:45:39.036Z,99833.42
2019-03-30T22:48:07.706Z,99831.41
2019-03-30T22:50:36.347Z,99830.75
2019-03-30T22:53:04.984Z,99834.47
2019-03-30T22:55:33.770Z,99835.27
2019-03-30T22:58:02.417Z,99830.66
2019-03-30T23:00:55.266Z,99829.12
2019-03-30T23:03:24.241Z,99832.98
2019-03-30T23:05:52.827Z,99833.65
2019-03-30T23:08:21.422Z,99861.91
2019-03-30T23:10:50.167Z,99855.18
2019-03-30T23:13:18.760Z,99837.13
2019-03-30T23:15:47.354Z,99856.91
2019-03-30T23:18:15.939Z,99845.12
2019-03-30T23:20:44.742Z,99845.08
2019-03-30T23:23:13.346Z,99843.91
2019-03-30T23:25:42.002Z,99845.48
2019-03-30T23:28:10.671Z,99834.94
2019-03-30T23:30:53.188Z,99836.13
2019-03-30T23:33:09.843Z,99833.07
2019-03-30T23:35:38.491Z,99835.30
2019-03-30T23:38:07.069Z,99831.16
2019-03-30T23:40:35.958Z,99832.27
2019-03-30T23:43:04.687Z,99840.39
2019-03-30T23:45:33.306Z,99840.70
2019-03-30T23:48:01.951Z,99841.26
2019-03-30T23:50:30.932Z,99840.39
2019-03-30T23:52:59.502Z,99843.65
2019-03-30T23:55:28.124Z,99839.06
2019-03-30T23:57:56.736Z,99837.39
